createdAt,value
2023-05-16T00:00:54.306Z,79.47
2023-05-16T00:03:57.413Z,79.45
2023-05-16T00:07:02.047Z,79.18
2023-05-16T00:10:06.338Z,79.03
2023-05-16T00:13:09.923Z,79.05
2023-05-16T00:16:14.530Z,79.21
2023-05-16T00:19:17.483Z,79.33
2023-05-16T00:22:21.662Z,79.18
2023-05-16T00:25:24.383Z,79.37
2023-05-16T00:28:27.256Z,79.22
2023-05-16T00:31:30.062Z,79.50
2023-05-16T00:34:32.790Z,79.83
2023-05-16T00:37:36.923Z,79.69
2023-05-16T00:40:40.342Z,79.73
2023-05-16T00:43:43.069Z,79.74
2023-05-16T00:46:45.846Z,79.83
2023-05-16T00:49:48.838Z,79.79
2023-05-16T00:52:53.000Z,79.95
2023-05-16T00:55:57.590Z,80.21
2023-05-16T00:59:00.676Z,79.89
2023-05-16T01:02:03.944Z,79.79
2023-05-16T01:05:07.591Z,80.22
2023-05-16T01:08:11.622Z,80.00
2023-05-16T01:11:23.405Z,80.09
2023-05-16T01:14:33.966Z,79.84
2023-05-16T01:17:45.592Z,79.75
2023-05-16T01:20:56.064Z,79.96
2023-05-16T01:24:11.280Z,79.74
2023-05-16T01:27:16.869Z,80.10
2023-05-16T01:30:21.243Z,80.17
2023-05-16T01:33:23.932Z,80.27
2023-05-16T01:36:31.856Z,80.20
2023-05-16T01:39:39.015Z,80.46
2023-05-16T01:42:46.423Z,80.24
2023-05-16T01:45:55.088Z,80.32
2023-05-16T01:49:16.815Z,80.86
2023-05-16T01:52:27.030Z,80.91
2023-05-16T01:55:43.812Z,80.77
2023-05-16T01:58:51.052Z,80.95
2023-05-16T02:01:54.963Z,80.97
2023-05-16T02:04:57.618Z,81.67
2023-05-16T02:08:00.539Z,81.54
2023-05-16T02:11:03.313Z,81.71
2023-05-16T02:14:07.305Z,81.58
2023-05-16T02:17:10.024Z,81.49
2023-05-16T02:20:14.181Z,81.60
2023-05-16T02:23:16.888Z,81.41
2023-05-16T02:26:19.730Z,81.32
2023-05-16T02:29:23.775Z,81.55
2023-05-16T02:32:26.649Z,81.62
2023-05-16T02:35:29.555Z,81.45
2023-05-16T02:38:32.307Z,81.36
2023-05-16T02:41:34.995Z,81.61
2023-05-16T02:44:39.033Z,81.92
2023-05-16T02:47:41.748Z,81.67
2023-05-16T02:50:44.498Z,82.01
2023-05-16T02:53:47.184Z,81.91
2023-05-16T02:56:49.888Z,82.26
2023-05-16T02:59:53.947Z,82.04
2023-05-16T03:02:57.037Z,82.42
2023-05-16T03:05:59.851Z,82.59
2023-05-16T03:09:03.239Z,82.86
2023-05-16T03:12:07.144Z,82.93
2023-05-16T03:15:12.147Z,83.58
2023-05-16T03:18:14.830Z,84.01
2023-05-16T03:21:17.540Z,84.50
2023-05-16T03:24:23.001Z,85.09
2023-05-16T03:27:27.809Z,85.99
2023-05-16T03:30:31.983Z,86.33
2023-05-16T03:33:34.777Z,86.68
2023-05-16T03:36:37.586Z,86.71
2023-05-16T03:39:40.377Z,86.26
2023-05-16T03:42:43.165Z,86.58
2023-05-16T03:45:47.219Z,86.44
2023-05-16T03:48:50.006Z,86.56
2023-05-16T03:51:52.703Z,86.41
2023-05-16T03:54:55.479Z,86.64
2023-05-16T03:57:58.332Z,86.56
2023-05-16T04:01:03.154Z,86.77
2023-05-16T04:04:05.983Z,86.65
2023-05-16T04:07:15.953Z,86.93
2023-05-16T04:10:18.637Z,86.72
2023-05-16T04:13:21.367Z,86.96
2023-05-16T04:16:25.459Z,86.87
2023-05-16T04:19:28.160Z,86.86
2023-05-16T04:22:30.892Z,87.29
2023-05-16T04:25:33.654Z,86.85
2023-05-16T04:28:36.589Z,86.81
2023-05-16T04:31:40.689Z,86.97
2023-05-16T04:34:44.267Z,87.37
2023-05-16T04:37:47.243Z,87.11
2023-05-16T04:40:51.060Z,87.14
2023-05-16T04:43:53.816Z,87.63
2023-05-16T04:46:57.985Z,88.01
2023-05-16T04:50:00.751Z,87.82
2023-05-16T04:53:03.850Z,87.74
2023-05-16T04:56:07.067Z,87.96
2023-05-16T04:59:09.801Z,87.65
2023-05-16T05:02:14.242Z,87.64
2023-05-16T05:05:17.081Z,87.78
2023-05-16T05:08:19.937Z,87.65
2023-05-16T05:11:23.192Z,87.17
2023-05-16T05:14:25.883Z,86.83
2023-05-16T05:17:30.084Z,85.61
2023-05-16T05:20:32.868Z,86.45
2023-05-16T05:23:35.834Z,86.86
2023-05-16T05:26:38.663Z,86.75
2023-05-16T05:29:41.450Z,87.04
2023-05-16T05:32:45.604Z,87.13
2023-05-16T05:35:48.340Z,87.12
2023-05-16T05:38:51.208Z,86.44
2023-05-16T05:41:53.841Z,86.06
2023-05-16T05:44:58.931Z,86.10
2023-05-16T05:48:03.127Z,85.85
2023-05-16T05:51:06.125Z,85.82
2023-05-16T05:54:09.213Z,85.55
2023-05-16T05:57:11.947Z,85.42
2023-05-16T06:00:18.063Z,85.25
2023-05-16T06:03:22.290Z,85.63
2023-05-16T06:06:25.043Z,85.08
2023-05-16T06:09:27.716Z,84.61
2023-05-16T06:12:30.374Z,84.17
2023-05-16T06:15:33.109Z,83.31
2023-05-16T06:18:37.199Z,82.97
2023-05-16T06:21:39.880Z,82.28
2023-05-16T06:24:42.571Z,80.66
2023-05-16T06:27:47.264Z,79.31
2023-05-16T06:30:51.806Z,78.06
2023-05-16T06:33:56.462Z,77.88
2023-05-16T06:36:59.808Z,77.65
2023-05-16T06:40:02.656Z,77.73
2023-05-16T06:43:05.392Z,78.35
2023-05-16T06:46:08.142Z,79.21
2023-05-16T06:49:12.366Z,79.72
2023-05-16T06:52:15.081Z,79.69
2023-05-16T06:55:17.985Z,79.68
2023-05-16T06:58:20.784Z,79.94
2023-05-16T07:01:27.375Z,79.60
2023-05-16T07:04:31.530Z,78.76
2023-05-16T07:07:34.254Z,79.36
2023-05-16T07:10:37.189Z,80.45
2023-05-16T07:13:39.882Z,80.47
2023-05-16T07:16:42.834Z,80.67
2023-05-16T07:19:46.893Z,80.52
2023-05-16T07:22:49.658Z,81.02
2023-05-16T07:25:53.331Z,80.68
2023-05-16T07:28:56.233Z,81.33
2023-05-16T07:31:59.384Z,80.82
2023-05-16T07:35:03.677Z,81.40
2023-05-16T07:38:06.562Z,81.23
2023-05-16T07:41:11.617Z,81.10
2023-05-16T07:44:14.609Z,81.57
2023-05-16T07:47:17.342Z,81.57
2023-05-16T07:50:24.769Z,81.68
2023-05-16T07:53:27.469Z,81.34
2023-05-16T07:56:30.263Z,81.37
2023-05-16T07:59:33.109Z,81.12
2023-05-16T08:02:36.143Z,79.92
2023-05-16T08:05:41.322Z,80.31
2023-05-16T08:08:47.381Z,80.28
2023-05-16T08:11:50.375Z,80.52
2023-05-16T08:14:53.090Z,80.38
2023-05-16T08:17:58.532Z,80.67
2023-05-16T08:21:02.846Z,79.38
2023-05-16T08:24:06.447Z,80.53
2023-05-16T08:27:09.637Z,80.94
2023-05-16T08:30:13.207Z,82.42
2023-05-16T08:33:16.190Z,83.86
2023-05-16T08:36:20.682Z,88.27
2023-05-16T08:39:30.678Z,89.93
2023-05-16T08:42:35.021Z,88.90
2023-05-16T08:45:45.335Z,90.58
2023-05-16T08:48:48.702Z,90.28
2023-05-16T08:51:53.471Z,88.69
2023-05-16T08:55:09.151Z,88.64
2023-05-16T08:58:21.830Z,88.55
2023-05-16T09:01:24.820Z,89.90
2023-05-16T09:04:27.984Z,87.37
2023-05-16T09:07:32.215Z,87.73
2023-05-16T09:10:34.894Z,86.29
2023-05-16T09:13:38.817Z,83.45
2023-05-16T09:16:41.651Z,81.59
2023-05-16T09:19:45.093Z,81.62
2023-05-16T09:22:54.247Z,81.86
2023-05-16T09:25:59.234Z,82.28
2023-05-16T09:29:02.323Z,81.02
2023-05-16T09:32:15.860Z,79.99
2023-05-16T09:35:27.235Z,80.11
2023-05-16T09:38:38.881Z,79.61
2023-05-16T09:41:41.594Z,79.52
2023-05-16T09:44:48.082Z,79.57
2023-05-16T09:47:53.925Z,78.20
2023-05-16T09:51:06.018Z,79.04
2023-05-16T09:54:10.505Z,79.36
2023-05-16T09:57:13.236Z,74.93
2023-05-16T10:00:17.321Z,75.90
2023-05-16T10:03:20.503Z,77.79
2023-05-16T10:06:23.640Z,73.59
2023-05-16T10:09:29.327Z,74.42
2023-05-16T10:12:33.208Z,74.83
2023-05-16T10:15:39.106Z,75.52
2023-05-16T10:18:43.401Z,75.65
2023-05-16T10:21:51.412Z,74.90
2023-05-16T10:25:05.379Z,74.35
2023-05-16T10:28:16.460Z,73.03
2023-05-16T10:31:19.485Z,74.41
2023-05-16T10:34:23.139Z,73.61
2023-05-16T10:37:26.600Z,73.18
2023-05-16T10:40:31.788Z,73.62
2023-05-16T10:43:34.475Z,74.85
2023-05-16T10:46:39.460Z,73.83
2023-05-16T10:49:42.680Z,75.10
2023-05-16T10:52:45.377Z,74.30
2023-05-16T10:56:10.468Z,72.49
2023-05-16T10:59:28.432Z,72.58
2023-05-16T11:02:34.703Z,72.59
2023-05-16T11:05:38.228Z,72.45
2023-05-16T11:08:59.360Z,72.56
2023-05-16T11:12:03.936Z,70.84
2023-05-16T11:15:28.527Z,71.37
2023-05-16T11:18:33.804Z,70.45
2023-05-16T11:22:22.938Z,69.36
2023-05-16T11:25:39.294Z,69.85
2023-05-16T11:28:43.557Z,65.74
2023-05-16T11:31:46.654Z,66.25
2023-05-16T11:34:49.817Z,65.49
2023-05-16T11:37:52.637Z,61.60
2023-05-16T11:40:55.384Z,62.59
2023-05-16T11:43:59.543Z,62.53
2023-05-16T11:47:03.624Z,58.51
2023-05-16T11:50:07.866Z,57.33
2023-05-16T11:53:10.650Z,60.32
2023-05-16T11:56:13.526Z,61.54
2023-05-16T11:59:18.235Z,61.45
2023-05-16T12:02:21.925Z,59.32
2023-05-16T12:05:28.378Z,59.15
2023-05-16T12:08:31.333Z,56.82
2023-05-16T12:11:34.450Z,54.92
2023-05-16T12:14:38.498Z,53.35
2023-05-16T12:17:42.868Z,51.69
2023-05-16T12:20:46.227Z,50.94
2023-05-16T12:23:49.053Z,50.50
2023-05-16T12:26:54.605Z,51.50
2023-05-16T12:30:00.516Z,50.61
2023-05-16T12:33:09.377Z,49.91
2023-05-16T12:36:15.687Z,50.27
2023-05-16T12:39:18.524Z,49.99
2023-05-16T12:42:21.475Z,48.34
2023-05-16T12:45:25.894Z,45.66
2023-05-16T12:48:33.686Z,46.38
2023-05-16T12:51:36.578Z,47.22
2023-05-16T12:54:39.895Z,45.01
2023-05-16T12:57:43.992Z,45.86
2023-05-16T13:00:48.639Z,45.64
2023-05-16T13:03:51.431Z,45.41
2023-05-16T13:06:59.133Z,45.48
2023-05-16T13:10:04.250Z,46.44
2023-05-16T13:13:07.185Z,45.75
2023-05-16T13:16:11.779Z,45.62
2023-05-16T13:19:14.532Z,44.45
2023-05-16T13:22:17.363Z,44.38
2023-05-16T13:25:20.539Z,42.33
2023-05-16T13:28:23.431Z,44.58
2023-05-16T13:31:27.751Z,43.84
2023-05-16T13:34:30.595Z,44.39
2023-05-16T13:37:33.517Z,45.10
2023-05-16T13:40:36.556Z,44.06
2023-05-16T13:43:39.275Z,43.15
2023-05-16T13:46:43.449Z,42.90
2023-05-16T13:49:46.173Z,42.92
2023-05-16T13:52:49.203Z,43.82
2023-05-16T13:55:52.008Z,42.21
2023-05-16T13:59:03.764Z,41.11
2023-05-16T14:02:10.282Z,41.91
2023-05-16T14:05:13.179Z,41.22
2023-05-16T14:08:15.934Z,42.69
2023-05-16T14:11:19.652Z,40.49
2023-05-16T14:14:22.608Z,40.56
2023-05-16T14:17:26.864Z,41.76
2023-05-16T14:20:29.634Z,40.51
2023-05-16T14:23:32.355Z,41.54
2023-05-16T14:26:35.151Z,41.31
2023-05-16T14:29:38.171Z,40.79
2023-05-16T14:32:42.475Z,41.27
2023-05-16T14:35:45.427Z,41.21
2023-05-16T14:38:49.571Z,41.96
2023-05-16T14:41:53.028Z,41.94
2023-05-16T14:44:55.811Z,41.51
2023-05-16T14:48:00.111Z,42.22
2023-05-16T14:51:03.699Z,41.05
2023-05-16T14:54:06.671Z,40.75
2023-05-16T14:57:09.642Z,39.71
2023-05-16T15:00:17.077Z,38.96
2023-05-16T15:03:21.487Z,38.29
2023-05-16T15:06:26.710Z,39.37
2023-05-16T15:09:29.530Z,39.42
2023-05-16T15:12:32.568Z,39.54
2023-05-16T15:15:35.492Z,38.61
2023-05-16T15:18:40.778Z,38.53
2023-05-16T15:21:43.684Z,38.25
2023-05-16T15:24:46.596Z,36.72
2023-05-16T15:27:49.614Z,37.35
2023-05-16T15:30:52.699Z,37.78
2023-05-16T15:33:56.851Z,37.87
2023-05-16T15:36:59.896Z,37.08
2023-05-16T15:40:04.434Z,37.60
2023-05-16T15:43:07.363Z,37.88
2023-05-16T15:46:10.537Z,37.31
2023-05-16T15:49:14.883Z,36.80
2023-05-16T15:52:17.658Z,37.17
2023-05-16T15:55:20.532Z,37.19
2023-05-16T15:58:24.297Z,37.31
2023-05-16T16:01:27.627Z,37.53
2023-05-16T16:04:32.714Z,37.72
2023-05-16T16:07:35.553Z,38.33
2023-05-16T16:10:38.618Z,37.95
2023-05-16T16:13:41.442Z,37.08
2023-05-16T16:16:44.835Z,36.71
2023-05-16T16:19:49.148Z,36.77
2023-05-16T16:22:52.669Z,36.49
2023-05-16T16:25:55.786Z,37.64
2023-05-16T16:28:58.839Z,37.13
2023-05-16T16:32:01.642Z,37.53
2023-05-16T16:35:06.805Z,38.36
2023-05-16T16:38:09.716Z,37.68
2023-05-16T16:41:14.786Z,36.93
2023-05-16T16:44:18.032Z,38.07
2023-05-16T16:47:21.303Z,38.05
2023-05-16T16:50:31.104Z,37.81
2023-05-16T16:53:35.282Z,37.75
2023-05-16T16:56:38.083Z,37.37
2023-05-16T16:59:40.981Z,37.55
2023-05-16T17:02:43.869Z,38.80
2023-05-16T17:05:48.213Z,38.49
2023-05-16T17:08:51.007Z,38.27
2023-05-16T17:11:54.031Z,39.54
2023-05-16T17:14:57.315Z,40.59
2023-05-16T17:18:00.259Z,41.08
2023-05-16T17:21:05.181Z,40.16
2023-05-16T17:24:08.595Z,39.05
2023-05-16T17:27:11.726Z,39.03
2023-05-16T17:30:15.548Z,38.26
2023-05-16T17:33:19.982Z,38.83
2023-05-16T17:36:24.316Z,38.39
2023-05-16T17:39:27.125Z,39.04
2023-05-16T17:42:29.832Z,40.10
2023-05-16T17:45:32.799Z,40.84
2023-05-16T17:48:35.611Z,40.86
2023-05-16T17:51:50.808Z,41.68
2023-05-16T17:54:53.622Z,42.44
2023-05-16T17:57:56.483Z,42.50
2023-05-16T18:00:59.190Z,42.50
2023-05-16T18:04:02.219Z,41.92
2023-05-16T18:07:06.529Z,41.12
2023-05-16T18:10:10.389Z,41.02
2023-05-16T18:13:13.985Z,42.21
2023-05-16T18:16:17.200Z,42.73
2023-05-16T18:19:20.699Z,42.55
2023-05-16T18:22:26.085Z,43.71
2023-05-16T18:25:29.377Z,44.18
2023-05-16T18:28:32.259Z,44.52
2023-05-16T18:31:35.542Z,45.48
2023-05-16T18:34:41.450Z,45.23
2023-05-16T18:37:46.682Z,44.75
2023-05-16T18:40:50.447Z,45.21
2023-05-16T18:43:53.298Z,46.07
2023-05-16T18:46:58.698Z,46.99
2023-05-16T18:50:02.577Z,48.26
2023-05-16T18:53:06.767Z,49.20
2023-05-16T18:56:09.462Z,49.83
2023-05-16T18:59:12.506Z,50.43
2023-05-16T19:02:15.867Z,50.45
2023-05-16T19:05:19.561Z,51.05
2023-05-16T19:08:25.573Z,51.54
2023-05-16T19:11:30.030Z,52.31
2023-05-16T19:14:32.924Z,52.89
2023-05-16T19:17:35.717Z,53.20
2023-05-16T19:20:43.235Z,53.66
2023-05-16T19:23:49.028Z,55.17
2023-05-16T19:26:51.854Z,55.37
2023-05-16T19:29:54.576Z,56.31
2023-05-16T19:32:58.679Z,57.42
2023-05-16T19:36:05.891Z,58.09
2023-05-16T19:39:11.209Z,58.45
2023-05-16T19:42:13.920Z,59.00
2023-05-16T19:45:16.671Z,60.09
2023-05-16T19:48:20.050Z,60.36
2023-05-16T19:51:37.227Z,60.14
2023-05-16T19:54:45.346Z,59.43
2023-05-16T19:57:48.144Z,58.95
2023-05-16T20:00:51.843Z,58.72
2023-05-16T20:03:54.623Z,58.78
2023-05-16T20:06:57.850Z,59.07
2023-05-16T20:10:02.369Z,58.76
2023-05-16T20:13:05.460Z,58.34
2023-05-16T20:16:08.384Z,57.67
2023-05-16T20:19:13.597Z,58.08
2023-05-16T20:22:17.117Z,57.71
2023-05-16T20:25:21.321Z,58.09
2023-05-16T20:28:27.348Z,58.32
2023-05-16T20:31:30.376Z,58.85
2023-05-16T20:34:33.262Z,59.00
2023-05-16T20:37:36.008Z,58.95
2023-05-16T20:40:40.838Z,59.14
2023-05-16T20:43:43.618Z,59.35
2023-05-16T20:46:46.560Z,59.60
2023-05-16T20:49:49.396Z,59.64
2023-05-16T20:52:52.162Z,60.06
2023-05-16T20:55:56.292Z,60.03
2023-05-16T20:58:59.171Z,60.13
2023-05-16T21:02:01.919Z,60.46
2023-05-16T21:05:22.990Z,60.71
2023-05-16T21:08:28.006Z,60.51
2023-05-16T21:11:32.990Z,60.79
2023-05-16T21:14:35.670Z,61.22
2023-05-16T21:17:39.838Z,62.10
2023-05-16T21:20:42.762Z,62.57
2023-05-16T21:23:45.480Z,63.07
2023-05-16T21:26:49.543Z,63.39
2023-05-16T21:29:52.236Z,63.54
2023-05-16T21:32:55.010Z,64.15
2023-05-16T21:35:57.818Z,63.87
2023-05-16T21:39:00.546Z,63.69
2023-05-16T21:42:05.337Z,63.88
2023-05-16T21:45:12.574Z,63.58
2023-05-16T21:48:15.696Z,63.74
2023-05-16T21:51:19.496Z,63.53
2023-05-16T21:54:22.218Z,63.54
2023-05-16T21:57:26.398Z,63.61
2023-05-16T22:00:29.126Z,63.98
2023-05-16T22:03:31.961Z,64.03
2023-05-16T22:06:34.743Z,64.28
2023-05-16T22:09:37.554Z,64.40
2023-05-16T22:12:41.655Z,64.54
2023-05-16T22:15:52.161Z,64.73
2023-05-16T22:19:08.963Z,65.04
2023-05-16T22:22:12.358Z,65.13
2023-05-16T22:25:15.649Z,65.47
2023-05-16T22:28:19.958Z,65.55
2023-05-16T22:31:22.674Z,65.59
2023-05-16T22:34:25.558Z,65.53
2023-05-16T22:37:28.306Z,65.80
2023-05-16T22:40:31.572Z,65.98
2023-05-16T22:43:35.789Z,66.44
2023-05-16T22:46:38.514Z,66.40
2023-05-16T22:49:41.290Z,66.41
2023-05-16T22:52:44.094Z,66.61
2023-05-16T22:55:46.811Z,66.82
2023-05-16T22:58:50.835Z,67.13
2023-05-16T23:01:53.776Z,67.21
2023-05-16T23:04:56.517Z,67.59
2023-05-16T23:07:59.391Z,68.01
2023-05-16T23:11:02.145Z,68.42
2023-05-16T23:14:06.198Z,68.42
2023-05-16T23:17:09.064Z,68.24
2023-05-16T23:20:14.985Z,67.99
2023-05-16T23:23:17.672Z,68.05
2023-05-16T23:26:21.054Z,68.36
2023-05-16T23:29:25.156Z,68.35
2023-05-16T23:32:27.996Z,68.07
2023-05-16T23:35:30.741Z,68.33
2023-05-16T23:38:33.448Z,68.53
2023-05-16T23:41:36.178Z,68.93
2023-05-16T23:44:41.775Z,69.22
2023-05-16T23:47:44.553Z,69.84
2023-05-16T23:50:47.351Z,70.14
2023-05-16T23:53:50.139Z,70.34
2023-05-16T23:56:52.896Z,70.69
2023-05-16T23:59:57.589Z,70.72
